createdAt,value
2023-03-14T00:01:45.970Z,71.62
2023-03-14T00:04:17.642Z,71.69
2023-03-14T00:06:50.889Z,70.94
2023-03-14T00:09:22.496Z,71.58
2023-03-14T00:11:56.729Z,72.06
2023-03-14T00:14:28.588Z,71.56
2023-03-14T00:17:00.124Z,72.00
2023-03-14T00:19:31.744Z,73.14
2023-03-14T00:22:03.242Z,72.83
2023-03-14T00:24:34.863Z,73.48
2023-03-14T00:27:06.408Z,73.92
2023-03-14T00:29:38.443Z,74.84
2023-03-14T00:32:10.055Z,75.10
2023-03-14T00:34:41.608Z,74.62
2023-03-14T00:37:13.122Z,74.69
2023-03-14T00:39:44.683Z,74.28
2023-03-14T00:42:16.197Z,74.62
2023-03-14T00:44:48.079Z,74.00
2023-03-14T00:47:19.928Z,75.04
2023-03-14T00:49:51.602Z,75.03
2023-03-14T00:52:23.111Z,74.73
2023-03-14T00:54:54.783Z,75.35
2023-03-14T00:57:26.285Z,75.58
2023-03-14T00:59:57.772Z,75.28
2023-03-14T01:02:29.896Z,75.88
2023-03-14T01:05:02.340Z,75.75
2023-03-14T01:07:34.190Z,76.04
2023-03-14T01:10:06.869Z,77.82
2023-03-14T01:12:38.401Z,77.04
2023-03-14T01:15:10.641Z,77.55
2023-03-14T01:17:42.368Z,79.32
2023-03-14T01:20:16.049Z,78.53
2023-03-14T01:22:47.884Z,80.21
2023-03-14T01:25:19.620Z,78.79
2023-03-14T01:27:51.227Z,80.80
2023-03-14T01:30:23.097Z,80.70
2023-03-14T01:32:54.694Z,82.08
2023-03-14T01:35:26.516Z,82.33
2023-03-14T01:37:58.260Z,82.64
2023-03-14T01:40:29.814Z,83.59
2023-03-14T01:43:14.518Z,83.34
2023-03-14T01:46:07.934Z,84.53
2023-03-14T01:49:05.462Z,84.14
2023-03-14T01:51:39.763Z,86.03
2023-03-14T01:54:28.215Z,87.04
2023-03-14T01:57:08.148Z,88.48
2023-03-14T01:59:44.197Z,88.05
2023-03-14T02:02:17.440Z,88.72
2023-03-14T02:04:50.761Z,88.95
2023-03-14T02:07:53.080Z,89.12
2023-03-14T02:10:39.366Z,89.76
2023-03-14T02:13:12.688Z,89.03
2023-03-14T02:15:44.427Z,90.64
2023-03-14T02:18:18.143Z,91.03
2023-03-14T02:20:58.768Z,90.86
2023-03-14T02:23:43.300Z,92.72
2023-03-14T02:26:39.788Z,92.25
2023-03-14T02:29:11.513Z,91.13
2023-03-14T02:31:43.059Z,91.93
2023-03-14T02:34:14.602Z,91.78
2023-03-14T02:36:46.768Z,91.83
2023-03-14T02:39:29.094Z,90.82
2023-03-14T02:42:00.710Z,90.74
2023-03-14T02:44:32.288Z,91.16
2023-03-14T02:47:05.680Z,91.08
2023-03-14T02:49:37.204Z,90.67
2023-03-14T02:52:08.736Z,89.44
2023-03-14T02:54:40.297Z,89.30
2023-03-14T02:57:11.789Z,88.51
2023-03-14T02:59:43.589Z,89.43
2023-03-14T03:02:15.835Z,90.88
2023-03-14T03:04:47.689Z,89.66
2023-03-14T03:07:20.131Z,89.62
2023-03-14T03:09:51.894Z,89.14
2023-03-14T03:12:23.486Z,89.56
2023-03-14T03:14:55.027Z,90.79
2023-03-14T03:17:26.872Z,90.29
2023-03-14T03:19:58.758Z,90.44
2023-03-14T03:22:30.401Z,90.47
2023-03-14T03:25:01.967Z,90.35
2023-03-14T03:27:35.859Z,89.77
2023-03-14T03:30:08.915Z,90.12
2023-03-14T03:32:40.522Z,88.48
2023-03-14T03:35:12.231Z,89.36
2023-03-14T03:37:43.762Z,89.27
2023-03-14T03:40:15.345Z,89.58
2023-03-14T03:42:46.933Z,89.01
2023-03-14T03:45:18.500Z,88.49
2023-03-14T03:47:50.384Z,88.61
2023-03-14T03:50:22.051Z,88.73
2023-03-14T03:52:53.891Z,88.69
2023-03-14T03:55:26.916Z,86.54
2023-03-14T03:57:58.454Z,87.41
2023-03-14T04:00:30.046Z,86.85
2023-03-14T04:03:02.073Z,87.72
2023-03-14T04:05:35.253Z,85.85
2023-03-14T04:08:07.102Z,85.96
2023-03-14T04:10:38.724Z,86.90
2023-03-14T04:13:10.240Z,86.56
2023-03-14T04:15:41.858Z,86.39
2023-03-14T04:18:13.738Z,86.12
2023-03-14T04:20:45.937Z,86.46
2023-03-14T04:23:17.684Z,86.88
2023-03-14T04:25:50.826Z,86.47
2023-03-14T04:28:24.365Z,86.60
2023-03-14T04:30:56.258Z,86.36
2023-03-14T04:33:27.783Z,86.14
2023-03-14T04:35:59.334Z,85.79
2023-03-14T04:38:31.379Z,86.29
2023-03-14T04:41:03.248Z,85.95
2023-03-14T04:43:35.182Z,85.92
2023-03-14T04:46:07.077Z,85.49
2023-03-14T04:48:39.357Z,84.59
2023-03-14T04:51:10.747Z,84.27
2023-03-14T04:53:42.617Z,84.81
2023-03-14T04:56:14.251Z,85.08
2023-03-14T04:58:45.861Z,84.57
2023-03-14T05:01:18.713Z,85.32
2023-03-14T05:03:50.295Z,84.90
2023-03-14T05:06:21.830Z,84.60
2023-03-14T05:08:53.538Z,85.42
2023-03-14T05:11:25.386Z,84.73
2023-03-14T05:13:57.077Z,85.15
2023-03-14T05:16:29.029Z,84.83
2023-03-14T05:19:02.660Z,85.06
2023-03-14T05:21:34.296Z,84.51
2023-03-14T05:24:05.913Z,84.36
2023-03-14T05:26:37.499Z,84.58
2023-03-14T05:29:08.967Z,84.43
2023-03-14T05:31:40.702Z,84.04
2023-03-14T05:34:12.245Z,84.02
2023-03-14T05:36:44.111Z,83.58
2023-03-14T05:39:15.582Z,83.67
2023-03-14T05:41:47.289Z,83.44
2023-03-14T05:44:19.098Z,83.90
2023-03-14T05:46:50.726Z,83.75
2023-03-14T05:49:22.269Z,83.99
2023-03-14T05:51:54.160Z,84.27
2023-03-14T05:54:25.649Z,83.94
2023-03-14T05:56:57.162Z,84.28
2023-03-14T05:59:28.784Z,84.24
2023-03-14T06:02:00.672Z,84.24
2023-03-14T06:04:32.472Z,83.28
2023-03-14T06:07:04.473Z,82.75
2023-03-14T06:09:36.083Z,83.29
2023-03-14T06:12:07.928Z,83.48
2023-03-14T06:14:39.442Z,82.85
2023-03-14T06:17:11.155Z,83.34
2023-03-14T06:19:42.826Z,82.23
2023-03-14T06:22:14.561Z,81.82
2023-03-14T06:24:46.029Z,81.52
2023-03-14T06:27:17.549Z,81.63
2023-03-14T06:29:49.254Z,81.25
2023-03-14T06:32:21.610Z,80.99
2023-03-14T06:34:54.138Z,81.11
2023-03-14T06:37:26.117Z,80.03
2023-03-14T06:39:57.670Z,79.77
2023-03-14T06:42:29.228Z,79.72
2023-03-14T06:45:00.760Z,80.35
2023-03-14T06:47:32.511Z,79.43
2023-03-14T06:50:04.435Z,79.99
2023-03-14T06:52:36.634Z,78.96
2023-03-14T06:55:09.748Z,79.19
2023-03-14T06:57:41.531Z,78.48
2023-03-14T07:00:14.518Z,78.45
2023-03-14T07:02:46.093Z,77.61
2023-03-14T07:05:17.707Z,78.27
2023-03-14T07:07:49.262Z,77.31
2023-03-14T07:10:22.299Z,77.13
2023-03-14T07:12:54.868Z,76.95
2023-03-14T07:15:26.682Z,76.81
2023-03-14T07:17:58.303Z,76.79
2023-03-14T07:20:30.661Z,75.65
2023-03-14T07:23:03.982Z,75.63
2023-03-14T07:25:35.509Z,75.33
2023-03-14T07:28:07.074Z,76.44
2023-03-14T07:30:38.603Z,76.69
2023-03-14T07:33:11.545Z,76.01
2023-03-14T07:35:43.455Z,76.37
2023-03-14T07:38:15.809Z,75.92
2023-03-14T07:40:47.208Z,74.82
2023-03-14T07:43:19.090Z,75.27
2023-03-14T07:45:51.244Z,76.07
2023-03-14T07:48:22.963Z,75.31
2023-03-14T07:50:56.236Z,75.25
2023-03-14T07:53:27.748Z,73.39
2023-03-14T07:55:59.352Z,73.18
2023-03-14T07:58:30.908Z,72.00
2023-03-14T08:01:02.415Z,72.07
2023-03-14T08:03:34.394Z,72.16
2023-03-14T08:06:06.422Z,72.15
2023-03-14T08:08:37.950Z,71.63
2023-03-14T08:11:10.096Z,71.78
2023-03-14T08:13:41.662Z,71.96
2023-03-14T08:16:13.681Z,71.03
2023-03-14T08:18:46.208Z,70.49
2023-03-14T08:21:18.027Z,70.28
2023-03-14T08:23:49.614Z,69.71
2023-03-14T08:26:21.446Z,70.27
2023-03-14T08:28:53.801Z,69.62
2023-03-14T08:31:25.992Z,69.37
2023-03-14T08:34:00.710Z,68.30
2023-03-14T08:36:32.316Z,68.95
2023-03-14T08:39:05.164Z,68.07
2023-03-14T08:41:41.408Z,68.91
2023-03-14T08:44:13.269Z,68.48
2023-03-14T08:46:44.835Z,68.53
2023-03-14T08:49:16.575Z,67.64
2023-03-14T08:51:48.134Z,66.66
2023-03-14T08:54:20.145Z,67.49
2023-03-14T08:56:51.742Z,67.58
2023-03-14T08:59:23.483Z,68.25
2023-03-14T09:01:55.589Z,67.54
2023-03-14T09:04:27.241Z,66.83
2023-03-14T09:06:59.330Z,67.27
2023-03-14T09:09:34.027Z,66.94
2023-03-14T09:12:05.975Z,65.52
2023-03-14T09:14:37.523Z,65.48
2023-03-14T09:17:09.168Z,66.13
2023-03-14T09:19:40.765Z,65.89
2023-03-14T09:22:12.418Z,65.38
2023-03-14T09:24:44.033Z,65.15
2023-03-14T09:27:15.658Z,64.30
2023-03-14T09:29:47.232Z,64.85
2023-03-14T09:32:19.181Z,64.29
2023-03-14T09:34:50.862Z,63.36
2023-03-14T09:37:22.395Z,63.60
2023-03-14T09:39:53.908Z,63.81
2023-03-14T09:42:28.715Z,63.00
2023-03-14T09:45:08.985Z,63.72
2023-03-14T09:47:56.442Z,63.78
2023-03-14T09:51:03.749Z,63.67
2023-03-14T09:53:43.583Z,62.80
2023-03-14T09:56:25.920Z,61.82
2023-03-14T09:59:00.828Z,62.45
2023-03-14T10:01:34.351Z,61.74
2023-03-14T10:04:14.813Z,61.36
2023-03-14T10:06:48.603Z,60.75
2023-03-14T10:09:27.394Z,59.33
2023-03-14T10:12:09.407Z,59.40
2023-03-14T10:14:52.170Z,58.76
2023-03-14T10:17:24.555Z,56.80
2023-03-14T10:20:01.205Z,57.45
2023-03-14T10:22:33.942Z,54.91
2023-03-14T10:25:24.215Z,54.74
2023-03-14T10:27:55.819Z,54.83
2023-03-14T10:30:46.929Z,55.04
2023-03-14T10:33:25.286Z,55.41
2023-03-14T10:36:20.879Z,54.71
2023-03-14T10:39:00.613Z,53.95
2023-03-14T10:41:34.412Z,53.49
2023-03-14T10:44:10.080Z,53.67
2023-03-14T10:46:41.660Z,54.10
2023-03-14T10:49:29.904Z,54.02
2023-03-14T10:52:19.561Z,53.52
2023-03-14T10:55:15.027Z,53.66
2023-03-14T10:57:47.726Z,53.09
2023-03-14T11:00:25.292Z,52.50
2023-03-14T11:03:13.936Z,52.91
2023-03-14T11:06:06.935Z,53.05
2023-03-14T11:08:43.099Z,53.14
2023-03-14T11:11:24.244Z,52.36
2023-03-14T11:14:33.098Z,51.83
2023-03-14T11:17:22.018Z,51.35
2023-03-14T11:20:24.044Z,51.51
2023-03-14T11:23:23.750Z,51.05
2023-03-14T11:26:04.995Z,50.93
2023-03-14T11:28:46.661Z,49.43
2023-03-14T11:31:37.195Z,49.92
2023-03-14T11:34:16.735Z,50.08
2023-03-14T11:36:56.985Z,49.93
2023-03-14T11:39:39.871Z,51.01
2023-03-14T11:42:18.050Z,51.43
2023-03-14T11:44:50.716Z,52.01
2023-03-14T11:47:35.797Z,52.57
2023-03-14T11:50:16.328Z,52.55
2023-03-14T11:52:55.204Z,52.27
2023-03-14T11:55:35.272Z,51.79
2023-03-14T11:58:19.031Z,50.60
2023-03-14T12:00:54.480Z,49.59
2023-03-14T12:03:53.126Z,50.17
2023-03-14T12:06:39.017Z,50.60
2023-03-14T12:09:11.921Z,50.51
2023-03-14T12:11:59.824Z,51.02
2023-03-14T12:14:37.556Z,51.22
2023-03-14T12:17:22.302Z,50.72
2023-03-14T12:20:13.691Z,50.76
2023-03-14T12:22:57.801Z,51.06
2023-03-14T12:25:34.414Z,50.73
2023-03-14T12:28:30.689Z,50.80
2023-03-14T12:31:31.955Z,51.04
2023-03-14T12:34:12.958Z,50.48
2023-03-14T12:36:54.774Z,49.72
2023-03-14T12:39:29.010Z,49.77
2023-03-14T12:42:04.155Z,50.04
2023-03-14T12:44:50.811Z,50.07
2023-03-14T12:47:25.535Z,49.57
2023-03-14T12:49:58.595Z,50.47
2023-03-14T12:52:50.558Z,51.00
2023-03-14T12:55:59.322Z,51.76
2023-03-14T12:58:39.584Z,52.35
2023-03-14T13:01:18.768Z,52.10
2023-03-14T13:03:58.119Z,52.64
2023-03-14T13:06:58.240Z,52.83
2023-03-14T13:09:35.656Z,52.88
2023-03-14T13:12:12.833Z,52.98
2023-03-14T13:14:50.927Z,53.36
2023-03-14T13:17:36.091Z,53.32
2023-03-14T13:20:17.862Z,53.22
2023-03-14T13:22:50.857Z,53.44
2023-03-14T13:25:23.638Z,54.68
2023-03-14T13:27:56.907Z,56.39
2023-03-14T13:30:52.137Z,56.98
2023-03-14T13:33:24.981Z,57.67
2023-03-14T13:36:05.437Z,58.67
2023-03-14T13:38:38.491Z,59.71
2023-03-14T13:41:12.851Z,60.31
2023-03-14T13:43:45.358Z,60.50
2023-03-14T13:46:24.305Z,60.53
2023-03-14T13:48:59.810Z,61.09
2023-03-14T13:51:36.425Z,62.80
2023-03-14T13:54:16.635Z,62.61
2023-03-14T13:56:49.048Z,64.24
2023-03-14T13:59:28.741Z,67.64
2023-03-14T14:02:05.189Z,68.26
2023-03-14T14:04:38.583Z,70.66
2023-03-14T14:07:17.155Z,72.05
2023-03-14T14:09:53.515Z,73.93
2023-03-14T14:12:40.520Z,75.21
2023-03-14T14:15:17.749Z,77.23
2023-03-14T14:17:59.983Z,76.93
2023-03-14T14:20:42.208Z,79.50
2023-03-14T14:23:26.150Z,80.72
2023-03-14T14:25:59.194Z,81.31
2023-03-14T14:28:36.396Z,80.06
2023-03-14T14:31:26.010Z,79.22
2023-03-14T14:33:59.107Z,78.49
2023-03-14T14:36:45.792Z,80.47
2023-03-14T14:39:27.275Z,80.58
2023-03-14T14:41:58.781Z,80.39
2023-03-14T14:44:36.568Z,80.47
2023-03-14T14:47:08.245Z,80.19
2023-03-14T14:49:40.056Z,79.55
2023-03-14T14:52:17.131Z,79.87
2023-03-14T14:54:58.954Z,80.99
2023-03-14T14:57:41.463Z,79.86
2023-03-14T15:00:19.340Z,78.81
2023-03-14T15:02:59.495Z,78.41
2023-03-14T15:05:36.699Z,78.50
2023-03-14T15:08:12.839Z,77.93
2023-03-14T15:10:44.543Z,78.08
2023-03-14T15:13:17.656Z,77.59
2023-03-14T15:15:56.617Z,78.28
2023-03-14T15:18:31.142Z,78.67
2023-03-14T15:21:03.249Z,79.31
2023-03-14T15:23:34.847Z,79.17
2023-03-14T15:26:14.544Z,79.76
2023-03-14T15:28:47.368Z,81.17
2023-03-14T15:31:20.373Z,84.21
2023-03-14T15:33:56.866Z,86.20
2023-03-14T15:36:31.808Z,84.76
2023-03-14T15:39:09.636Z,84.66
2023-03-14T15:41:42.740Z,85.62
2023-03-14T15:44:14.516Z,85.12
2023-03-14T15:46:46.072Z,81.83
2023-03-14T15:49:17.821Z,78.86
2023-03-14T15:51:49.837Z,79.22
2023-03-14T15:54:21.742Z,79.41
2023-03-14T15:56:55.001Z,79.50
2023-03-14T15:59:27.183Z,79.70
2023-03-14T16:01:58.744Z,78.22
2023-03-14T16:04:30.613Z,78.78
2023-03-14T16:07:02.198Z,77.85
2023-03-14T16:09:35.541Z,75.76
2023-03-14T16:12:08.476Z,75.12
2023-03-14T16:14:43.766Z,74.42
2023-03-14T16:17:15.589Z,74.81
2023-03-14T16:19:47.784Z,73.43
2023-03-14T16:22:20.507Z,72.54
2023-03-14T16:24:52.138Z,70.34
2023-03-14T16:27:23.706Z,65.36
2023-03-14T16:29:55.338Z,63.91
2023-03-14T16:32:28.095Z,60.23
2023-03-14T16:34:59.837Z,60.99
2023-03-14T16:37:31.334Z,61.57
2023-03-14T16:40:13.146Z,61.38
2023-03-14T16:43:11.627Z,62.09
2023-03-14T16:45:37.880Z,62.43
2023-03-14T16:48:09.521Z,62.38
2023-03-14T16:50:42.147Z,62.01
2023-03-14T16:53:14.854Z,61.70
2023-03-14T16:55:48.797Z,62.09
2023-03-14T16:58:21.387Z,62.54
2023-03-14T17:00:53.045Z,62.09
2023-03-14T17:03:24.889Z,62.11
2023-03-14T17:05:56.477Z,62.17
2023-03-14T17:08:27.998Z,61.91
2023-03-14T17:10:59.557Z,62.19
2023-03-14T17:13:31.057Z,61.39
2023-03-14T17:16:03.091Z,60.25
2023-03-14T17:18:35.279Z,60.23
2023-03-14T17:21:07.048Z,59.77
2023-03-14T17:23:38.883Z,60.08
2023-03-14T17:26:12.534Z,59.49
2023-03-14T17:28:44.737Z,59.76
2023-03-14T17:31:18.275Z,58.64
2023-03-14T17:33:51.898Z,59.26
2023-03-14T17:36:26.566Z,59.51
2023-03-14T17:38:58.681Z,58.83
2023-03-14T17:41:30.447Z,56.92
2023-03-14T17:44:01.953Z,57.82
2023-03-14T17:46:33.692Z,57.58
2023-03-14T17:49:05.207Z,57.33
2023-03-14T17:51:37.625Z,57.50
2023-03-14T17:54:09.000Z,57.27
2023-03-14T17:56:43.725Z,56.66
2023-03-14T17:59:15.551Z,56.06
2023-03-14T18:01:47.534Z,56.84
2023-03-14T18:04:20.397Z,57.09
2023-03-14T18:06:51.996Z,57.08
2023-03-14T18:09:23.682Z,57.55
2023-03-14T18:12:07.107Z,57.80
2023-03-14T18:14:44.363Z,57.44
2023-03-14T18:17:16.078Z,58.16
2023-03-14T18:19:47.556Z,58.39
2023-03-14T18:22:19.643Z,59.10
2023-03-14T18:24:51.526Z,59.08
2023-03-14T18:27:25.708Z,58.88
2023-03-14T18:29:58.784Z,59.46
2023-03-14T18:32:30.410Z,59.04
2023-03-14T18:35:02.241Z,59.61
2023-03-14T18:37:33.826Z,59.20
2023-03-14T18:40:08.916Z,58.60
2023-03-14T18:42:41.880Z,59.50
2023-03-14T18:45:15.110Z,59.05
2023-03-14T18:47:46.669Z,59.65
2023-03-14T18:50:18.431Z,59.87
2023-03-14T18:52:50.315Z,60.02
2023-03-14T18:55:23.802Z,60.52
2023-03-14T18:57:55.464Z,60.93
2023-03-14T19:00:28.341Z,61.00
2023-03-14T19:03:00.352Z,60.76
2023-03-14T19:05:34.594Z,61.04
2023-03-14T19:08:08.765Z,60.94
2023-03-14T19:10:40.668Z,61.37
2023-03-14T19:13:12.571Z,61.35
2023-03-14T19:15:45.018Z,61.69
2023-03-14T19:18:17.967Z,61.17
2023-03-14T19:20:59.750Z,61.01
2023-03-14T19:23:38.027Z,61.02
2023-03-14T19:26:09.980Z,61.05
2023-03-14T19:28:41.812Z,61.36
2023-03-14T19:31:14.012Z,61.28
2023-03-14T19:33:45.661Z,61.31
2023-03-14T19:36:29.822Z,61.30
2023-03-14T19:39:04.394Z,61.58
2023-03-14T19:41:36.311Z,61.42
2023-03-14T19:44:08.379Z,61.44
2023-03-14T19:46:39.917Z,61.72
2023-03-14T19:49:11.868Z,62.00
2023-03-14T19:51:45.056Z,62.35
2023-03-14T19:54:16.649Z,62.30
2023-03-14T19:56:49.171Z,61.92
2023-03-14T19:59:20.967Z,61.99
2023-03-14T20:01:54.765Z,62.78
2023-03-14T20:04:26.620Z,63.21
2023-03-14T20:06:58.354Z,63.04
2023-03-14T20:09:30.363Z,63.48
2023-03-14T20:12:02.623Z,63.80
2023-03-14T20:14:34.777Z,63.86
2023-03-14T20:17:08.210Z,64.21
2023-03-14T20:19:39.810Z,64.33
2023-03-14T20:22:11.335Z,64.80
2023-03-14T20:24:43.712Z,65.16
2023-03-14T20:27:15.409Z,65.13
2023-03-14T20:29:47.061Z,65.45
2023-03-14T20:32:20.322Z,66.16
2023-03-14T20:34:52.691Z,68.72
2023-03-14T20:37:24.549Z,71.49
2023-03-14T20:39:56.516Z,73.20
2023-03-14T20:42:29.291Z,74.23
2023-03-14T20:45:00.971Z,75.14
2023-03-14T20:47:34.480Z,76.94
2023-03-14T20:50:06.501Z,78.29
2023-03-14T20:52:39.751Z,79.49
2023-03-14T20:55:11.891Z,80.06
2023-03-14T20:57:43.410Z,80.76
2023-03-14T21:00:17.716Z,80.69
2023-03-14T21:02:49.417Z,81.73
2023-03-14T21:05:22.513Z,81.14
2023-03-14T21:07:57.186Z,82.17
2023-03-14T21:10:29.231Z,82.37
2023-03-14T21:13:00.726Z,82.59
2023-03-14T21:15:32.265Z,82.60
2023-03-14T21:18:05.580Z,82.84
2023-03-14T21:20:38.815Z,82.51
2023-03-14T21:23:15.615Z,82.48
2023-03-14T21:25:52.136Z,82.00
2023-03-14T21:28:25.588Z,82.39
2023-03-14T21:31:04.264Z,81.77
2023-03-14T21:33:36.303Z,81.64
2023-03-14T21:36:09.369Z,81.61
2023-03-14T21:38:42.931Z,80.93
2023-03-14T21:41:14.590Z,80.50
2023-03-14T21:43:46.343Z,80.18
2023-03-14T21:46:18.768Z,79.76
2023-03-14T21:48:50.380Z,78.64
2023-03-14T21:51:21.982Z,78.42
2023-03-14T21:53:54.178Z,77.77
2023-03-14T21:56:27.124Z,78.01
2023-03-14T21:58:59.935Z,77.60
2023-03-14T22:01:32.328Z,76.68
2023-03-14T22:04:03.917Z,77.38
2023-03-14T22:06:36.333Z,76.92
2023-03-14T22:09:07.827Z,77.01
2023-03-14T22:11:40.076Z,76.61
2023-03-14T22:14:11.544Z,76.47
